createdAt,value
2023-04-24T00:01:14.166Z,90.64
2023-04-24T00:03:47.358Z,91.48
2023-04-24T00:06:21.656Z,91.06
2023-04-24T00:08:54.736Z,91.29
2023-04-24T00:11:27.827Z,91.26
2023-04-24T00:14:00.668Z,91.06
2023-04-24T00:16:33.498Z,91.07
2023-04-24T00:19:06.944Z,91.64
2023-04-24T00:21:41.949Z,91.92
2023-04-24T00:24:14.698Z,93.06
2023-04-24T00:26:47.535Z,92.63
2023-04-24T00:29:20.441Z,93.81
2023-04-24T00:31:53.275Z,94.33
2023-04-24T00:34:26.154Z,94.61
2023-04-24T00:37:00.499Z,94.80
2023-04-24T00:39:33.297Z,95.22
2023-04-24T00:42:07.374Z,95.07
2023-04-24T00:44:40.973Z,96.03
2023-04-24T00:47:15.846Z,96.04
2023-04-24T00:49:48.631Z,96.79
2023-04-24T00:52:25.396Z,97.45
2023-04-24T00:54:58.310Z,97.99
2023-04-24T00:57:31.297Z,98.26
2023-04-24T01:00:05.700Z,98.20
2023-04-24T01:02:41.251Z,98.05
2023-04-24T01:05:16.048Z,98.25
2023-04-24T01:07:51.291Z,98.12
2023-04-24T01:10:26.228Z,97.50
2023-04-24T01:12:59.922Z,97.84
2023-04-24T01:15:32.833Z,97.35
2023-04-24T01:18:07.048Z,97.22
2023-04-24T01:20:42.296Z,97.18
2023-04-24T01:23:16.479Z,96.12
2023-04-24T01:25:51.412Z,95.11
2023-04-24T01:28:25.162Z,94.93
2023-04-24T01:30:58.103Z,94.53
2023-04-24T01:33:31.125Z,94.15
2023-04-24T01:36:03.977Z,94.15
2023-04-24T01:38:38.155Z,94.42
2023-04-24T01:41:11.330Z,94.02
2023-04-24T01:43:44.492Z,94.54
2023-04-24T01:46:17.480Z,94.36
2023-04-24T01:48:50.496Z,94.48
2023-04-24T01:51:27.962Z,94.55
2023-04-24T01:54:02.135Z,94.18
2023-04-24T01:56:36.940Z,94.56
2023-04-24T01:59:10.986Z,93.98
2023-04-24T02:01:43.959Z,93.83
2023-04-24T02:04:17.159Z,93.68
2023-04-24T02:06:50.515Z,93.52
2023-04-24T02:09:25.023Z,92.99
2023-04-24T02:11:58.318Z,93.24
2023-04-24T02:14:31.196Z,93.20
2023-04-24T02:17:03.987Z,93.29
2023-04-24T02:19:36.972Z,93.37
2023-04-24T02:22:09.793Z,93.05
2023-04-24T02:24:44.050Z,93.52
2023-04-24T02:27:17.013Z,93.19
2023-04-24T02:29:49.830Z,93.40
2023-04-24T02:32:22.614Z,94.06
2023-04-24T02:34:55.601Z,94.23
2023-04-24T02:37:28.403Z,93.66
2023-04-24T02:40:02.624Z,94.15
2023-04-24T02:42:35.620Z,94.80
2023-04-24T02:45:09.538Z,94.22
2023-04-24T02:47:42.383Z,95.00
2023-04-24T02:50:15.298Z,94.40
2023-04-24T02:52:48.401Z,94.90
2023-04-24T02:55:22.613Z,94.53
2023-04-24T02:57:55.582Z,94.00
2023-04-24T03:00:28.482Z,94.01
2023-04-24T03:03:01.567Z,94.60
2023-04-24T03:05:34.690Z,94.57
2023-04-24T03:08:07.591Z,94.46
2023-04-24T03:10:41.780Z,94.84
2023-04-24T03:13:14.597Z,95.43
2023-04-24T03:15:48.253Z,95.07
2023-04-24T03:18:21.688Z,94.94
2023-04-24T03:20:56.988Z,95.08
2023-04-24T03:23:30.047Z,95.90
2023-04-24T03:26:05.307Z,96.02
2023-04-24T03:28:39.397Z,95.84
2023-04-24T03:31:12.413Z,95.87
2023-04-24T03:33:45.271Z,95.89
2023-04-24T03:36:18.804Z,95.69
2023-04-24T03:38:51.772Z,94.83
2023-04-24T03:41:37.907Z,94.82
2023-04-24T03:44:16.950Z,94.13
2023-04-24T03:46:50.025Z,93.73
2023-04-24T03:49:23.776Z,94.47
2023-04-24T03:51:56.870Z,94.75
2023-04-24T03:54:32.710Z,94.00
2023-04-24T03:57:08.147Z,94.20
2023-04-24T03:59:44.998Z,95.03
2023-04-24T04:02:24.329Z,95.06
2023-04-24T04:04:57.481Z,95.86
2023-04-24T04:07:30.821Z,96.02
2023-04-24T04:10:04.558Z,95.10
2023-04-24T04:12:38.793Z,94.66
2023-04-24T04:15:12.502Z,95.14
2023-04-24T04:17:46.802Z,96.13
2023-04-24T04:20:19.673Z,96.16
2023-04-24T04:22:52.447Z,97.58
2023-04-24T04:25:39.537Z,97.47
2023-04-24T04:28:13.868Z,98.08
2023-04-24T04:30:48.107Z,97.65
2023-04-24T04:33:21.629Z,98.18
2023-04-24T04:35:57.699Z,99.21
2023-04-24T04:38:32.673Z,100.00
2023-04-24T04:41:13.776Z,100.00
2023-04-24T04:43:49.194Z,100.00
2023-04-24T04:46:22.879Z,100.00
2023-04-24T04:49:06.323Z,100.00
2023-04-24T04:51:41.186Z,99.53
2023-04-24T04:54:15.661Z,99.41
2023-04-24T04:56:48.859Z,99.14
2023-04-24T04:59:23.487Z,98.54
2023-04-24T05:02:03.002Z,98.60
2023-04-24T05:04:37.186Z,98.40
2023-04-24T05:07:10.212Z,98.43
2023-04-24T05:09:46.442Z,97.99
2023-04-24T05:12:19.934Z,97.48
2023-04-24T05:14:58.964Z,98.29
2023-04-24T05:17:33.067Z,99.62
2023-04-24T05:20:07.955Z,100.00
2023-04-24T05:22:41.018Z,100.00
2023-04-24T05:25:14.393Z,100.00
2023-04-24T05:27:54.335Z,100.00
2023-04-24T05:30:28.820Z,100.00
2023-04-24T05:33:02.553Z,100.00
2023-04-24T05:35:37.125Z,100.00
2023-04-24T05:38:10.434Z,100.00
2023-04-24T05:40:43.501Z,100.00
2023-04-24T05:43:16.393Z,100.00
2023-04-24T05:45:50.661Z,100.00
2023-04-24T05:48:25.175Z,100.00
2023-04-24T05:50:58.303Z,100.00
2023-04-24T05:53:31.721Z,100.00
2023-04-24T05:56:05.150Z,100.00
2023-04-24T05:58:39.126Z,100.00
2023-04-24T06:01:13.631Z,99.32
2023-04-24T06:03:46.730Z,98.75
2023-04-24T06:06:20.333Z,98.76
2023-04-24T06:08:53.199Z,98.29
2023-04-24T06:11:26.379Z,98.78
2023-04-24T06:13:59.491Z,99.82
2023-04-24T06:17:05.336Z,99.37
2023-04-24T06:19:43.365Z,99.39
2023-04-24T06:22:16.345Z,99.52
2023-04-24T06:24:49.407Z,99.70
2023-04-24T06:27:22.530Z,98.51
2023-04-24T06:29:56.280Z,96.55
2023-04-24T06:32:31.858Z,93.98
2023-04-24T06:35:08.432Z,92.31
2023-04-24T06:37:41.413Z,92.03
2023-04-24T06:40:14.653Z,91.13
2023-04-24T06:42:47.653Z,90.01
2023-04-24T06:45:21.108Z,89.04
2023-04-24T06:47:55.404Z,88.90
2023-04-24T06:50:28.302Z,88.53
2023-04-24T06:53:01.188Z,88.09
2023-04-24T06:55:34.256Z,87.10
2023-04-24T06:58:07.371Z,85.96
2023-04-24T07:00:40.390Z,85.32
2023-04-24T07:03:14.661Z,85.24
2023-04-24T07:05:48.724Z,85.05
2023-04-24T07:08:23.156Z,85.01
2023-04-24T07:10:56.898Z,83.12
2023-04-24T07:13:29.714Z,82.64
2023-04-24T07:16:02.530Z,82.05
2023-04-24T07:18:37.515Z,82.48
2023-04-24T07:21:10.621Z,81.60
2023-04-24T07:23:43.339Z,81.72
2023-04-24T07:26:17.584Z,80.92
2023-04-24T07:28:50.569Z,81.07
2023-04-24T07:31:23.366Z,80.62
2023-04-24T07:33:59.033Z,79.71
2023-04-24T07:36:33.515Z,78.61
2023-04-24T07:39:06.909Z,78.60
2023-04-24T07:41:39.679Z,78.09
2023-04-24T07:44:12.570Z,76.40
2023-04-24T07:46:45.519Z,75.45
2023-04-24T07:49:20.089Z,74.35
2023-04-24T07:51:52.984Z,74.89
2023-04-24T07:54:26.022Z,75.85
2023-04-24T07:56:58.812Z,76.10
2023-04-24T07:59:31.592Z,75.61
2023-04-24T08:02:04.369Z,75.79
2023-04-24T08:04:38.728Z,76.16
2023-04-24T08:07:13.811Z,76.17
2023-04-24T08:09:46.722Z,75.70
2023-04-24T08:12:19.480Z,75.96
2023-04-24T08:14:52.282Z,76.56
2023-04-24T08:17:26.641Z,75.83
2023-04-24T08:20:02.552Z,75.11
2023-04-24T08:22:35.678Z,74.18
2023-04-24T08:25:10.000Z,72.96
2023-04-24T08:27:42.872Z,72.99
2023-04-24T08:30:15.885Z,73.05
2023-04-24T08:32:48.755Z,72.85
2023-04-24T08:35:24.053Z,72.61
2023-04-24T08:37:56.948Z,73.82
2023-04-24T08:40:31.765Z,73.35
2023-04-24T08:43:05.654Z,75.44
2023-04-24T08:45:39.614Z,74.41
2023-04-24T08:48:23.322Z,71.54
2023-04-24T08:51:02.293Z,71.72
2023-04-24T08:53:35.254Z,72.00
2023-04-24T08:56:09.057Z,74.22
2023-04-24T08:58:43.448Z,75.97
2023-04-24T09:01:16.406Z,76.54
2023-04-24T09:03:51.564Z,76.83
2023-04-24T09:06:27.177Z,78.02
2023-04-24T09:09:02.333Z,82.20
2023-04-24T09:11:35.232Z,87.42
2023-04-24T09:14:09.209Z,90.27
2023-04-24T09:16:42.364Z,91.23
2023-04-24T09:19:15.250Z,91.61
2023-04-24T09:21:49.755Z,89.74
2023-04-24T09:24:24.327Z,88.09
2023-04-24T09:27:02.933Z,85.85
2023-04-24T09:29:36.401Z,87.04
2023-04-24T09:32:22.616Z,85.67
2023-04-24T09:35:10.134Z,81.10
2023-04-24T09:37:45.977Z,78.20
2023-04-24T09:40:20.489Z,77.97
2023-04-24T09:42:56.786Z,76.00
2023-04-24T09:45:30.709Z,73.71
2023-04-24T09:48:03.946Z,73.61
2023-04-24T09:50:40.091Z,72.59
2023-04-24T09:53:14.359Z,71.93
2023-04-24T09:55:49.570Z,69.53
2023-04-24T09:58:27.994Z,69.14
2023-04-24T10:01:00.982Z,69.61
2023-04-24T10:03:35.240Z,67.68
2023-04-24T10:06:10.123Z,69.25
2023-04-24T10:08:45.478Z,66.35
2023-04-24T10:11:18.970Z,65.79
2023-04-24T10:13:52.090Z,64.72
2023-04-24T10:16:28.217Z,64.14
2023-04-24T10:19:02.062Z,63.91
2023-04-24T10:21:36.070Z,62.67
2023-04-24T10:24:11.037Z,62.84
2023-04-24T10:26:45.189Z,61.60
2023-04-24T10:29:19.999Z,62.08
2023-04-24T10:31:53.123Z,59.68
2023-04-24T10:34:26.527Z,59.78
2023-04-24T10:36:59.594Z,61.00
2023-04-24T10:39:34.618Z,63.34
2023-04-24T10:42:16.916Z,62.30
2023-04-24T10:44:49.999Z,64.89
2023-04-24T10:47:22.860Z,66.45
2023-04-24T10:49:55.969Z,67.38
2023-04-24T10:52:46.317Z,66.70
2023-04-24T10:55:45.168Z,66.80
2023-04-24T10:58:19.190Z,66.81
2023-04-24T11:00:59.598Z,66.83
2023-04-24T11:03:34.281Z,67.03
2023-04-24T11:06:09.085Z,67.89
2023-04-24T11:08:45.906Z,67.18
2023-04-24T11:11:21.809Z,66.93
2023-04-24T11:14:07.632Z,66.35
2023-04-24T11:16:55.006Z,66.07
2023-04-24T11:19:29.795Z,66.01
2023-04-24T11:22:05.285Z,65.89
2023-04-24T11:24:42.784Z,66.18
2023-04-24T11:27:25.378Z,66.67
2023-04-24T11:30:02.913Z,67.41
2023-04-24T11:32:39.925Z,67.21
2023-04-24T11:35:17.632Z,67.65
2023-04-24T11:40:27.957Z,67.46
2023-04-24T11:43:02.512Z,67.25
2023-04-24T11:45:35.507Z,64.57
2023-04-24T11:48:08.849Z,65.30
2023-04-24T11:50:42.172Z,63.34
2023-04-24T11:53:15.009Z,62.93
2023-04-24T11:55:48.898Z,61.70
2023-04-24T11:58:24.353Z,61.83
2023-04-24T12:01:02.322Z,62.05
2023-04-24T12:03:35.443Z,61.75
2023-04-24T12:06:09.849Z,62.36
2023-04-24T12:08:42.821Z,62.21
2023-04-24T12:11:18.714Z,62.61
2023-04-24T12:13:52.823Z,63.54
2023-04-24T12:16:28.082Z,64.34
2023-04-24T12:19:02.001Z,64.83
2023-04-24T12:21:37.516Z,63.96
2023-04-24T12:24:10.377Z,64.96
2023-04-24T12:26:45.411Z,64.44
2023-04-24T12:29:23.508Z,65.36
2023-04-24T12:31:56.444Z,66.02
2023-04-24T12:34:29.424Z,63.27
2023-04-24T12:37:12.464Z,62.68
2023-04-24T12:40:01.524Z,62.70
2023-04-24T12:42:34.910Z,62.25
2023-04-24T12:45:09.987Z,63.15
2023-04-24T12:47:43.661Z,60.14
2023-04-24T12:50:17.943Z,59.49
2023-04-24T12:52:51.211Z,59.73
2023-04-24T12:55:24.240Z,61.42
2023-04-24T12:57:57.141Z,62.35
2023-04-24T13:00:31.619Z,59.69
2023-04-24T13:03:05.447Z,62.36
2023-04-24T13:05:38.278Z,63.76
2023-04-24T13:08:11.130Z,64.36
2023-04-24T13:10:44.027Z,64.51
2023-04-24T13:13:17.073Z,64.39
2023-04-24T13:15:51.188Z,62.04
2023-04-24T13:18:23.913Z,61.47
2023-04-24T13:20:57.514Z,61.60
2023-04-24T13:23:30.533Z,59.20
2023-04-24T13:26:03.587Z,57.85
2023-04-24T13:28:36.624Z,59.84
2023-04-24T13:31:11.781Z,60.30
2023-04-24T13:33:44.952Z,60.01
2023-04-24T13:36:18.428Z,62.28
2023-04-24T13:38:51.294Z,61.91
2023-04-24T13:41:24.079Z,61.62
2023-04-24T13:43:57.200Z,61.98
2023-04-24T13:46:31.530Z,60.09
2023-04-24T13:49:05.076Z,60.98
2023-04-24T13:51:38.256Z,61.78
2023-04-24T13:54:13.397Z,61.86
2023-04-24T13:56:46.192Z,60.19
2023-04-24T13:59:19.243Z,59.19
2023-04-24T14:01:53.468Z,58.31
2023-04-24T14:04:26.787Z,58.71
2023-04-24T14:06:59.963Z,59.15
2023-04-24T14:09:32.693Z,58.40
2023-04-24T14:12:06.673Z,58.78
2023-04-24T14:14:39.559Z,58.69
2023-04-24T14:17:13.770Z,59.06
2023-04-24T14:19:46.822Z,60.80
2023-04-24T14:22:19.887Z,61.22
2023-04-24T14:24:52.804Z,62.99
2023-04-24T14:27:26.368Z,64.16
2023-04-24T14:29:59.259Z,65.14
2023-04-24T14:32:33.571Z,65.16
2023-04-24T14:35:07.766Z,65.75
2023-04-24T14:37:42.164Z,66.49
2023-04-24T14:40:29.808Z,67.10
2023-04-24T14:43:08.043Z,66.76
2023-04-24T14:45:42.454Z,66.56
2023-04-24T14:48:17.619Z,66.35
2023-04-24T14:50:50.479Z,66.22
2023-04-24T14:53:23.305Z,65.49
2023-04-24T14:55:56.570Z,65.60
2023-04-24T14:58:29.482Z,64.72
2023-04-24T15:01:02.441Z,63.63
2023-04-24T15:03:37.063Z,63.72
2023-04-24T15:06:09.955Z,62.62
2023-04-24T15:08:43.064Z,61.03
2023-04-24T15:11:16.054Z,61.03
2023-04-24T15:13:49.065Z,61.14
2023-04-24T15:16:22.244Z,62.02
2023-04-24T15:18:58.090Z,61.43
2023-04-24T15:21:30.920Z,61.54
2023-04-24T15:24:03.743Z,61.43
2023-04-24T15:26:36.789Z,61.16
2023-04-24T15:29:10.750Z,61.34
2023-04-24T15:31:43.784Z,60.69
2023-04-24T15:34:18.021Z,59.58
2023-04-24T15:36:50.833Z,59.02
2023-04-24T15:39:24.997Z,59.46
2023-04-24T15:41:58.409Z,59.08
2023-04-24T15:44:31.229Z,58.85
2023-04-24T15:47:04.064Z,58.50
2023-04-24T15:49:38.245Z,60.21
2023-04-24T15:52:11.816Z,60.41
2023-04-24T15:54:44.561Z,61.89
2023-04-24T15:57:17.366Z,62.23
2023-04-24T15:59:50.410Z,63.18
2023-04-24T16:02:24.266Z,62.69
2023-04-24T16:04:58.790Z,62.79
2023-04-24T16:07:32.680Z,62.74
2023-04-24T16:10:06.361Z,63.00
2023-04-24T16:12:39.362Z,61.39
2023-04-24T16:15:12.714Z,61.44
2023-04-24T16:17:45.946Z,61.13
2023-04-24T16:20:20.824Z,61.07
2023-04-24T16:22:53.839Z,60.90
2023-04-24T16:25:26.622Z,61.19
2023-04-24T16:27:59.678Z,61.80
2023-04-24T16:30:32.534Z,61.56
2023-04-24T16:33:07.526Z,61.10
2023-04-24T16:35:43.198Z,60.78
2023-04-24T16:38:16.342Z,61.84
2023-04-24T16:40:55.024Z,63.33
2023-04-24T16:43:28.230Z,65.67
2023-04-24T16:46:01.648Z,66.50
2023-04-24T16:48:35.020Z,67.74
2023-04-24T16:51:09.310Z,67.66
2023-04-24T16:53:42.216Z,66.62
2023-04-24T17:14:06.265Z,68.55
2023-04-24T17:16:40.405Z,69.10
2023-04-24T17:19:13.736Z,69.02
2023-04-24T17:21:49.670Z,70.06
2023-04-24T17:24:22.550Z,70.63
2023-04-24T17:26:58.935Z,70.20
2023-04-24T17:29:36.056Z,70.32
2023-04-24T17:32:09.305Z,69.86
2023-04-24T17:34:42.214Z,70.61
2023-04-24T17:37:15.223Z,70.61
2023-04-24T17:39:48.008Z,71.00
2023-04-24T17:42:20.999Z,71.77
2023-04-24T17:44:55.966Z,72.10
2023-04-24T17:47:30.713Z,71.89
2023-04-24T17:50:03.670Z,71.05
2023-04-24T17:52:36.587Z,71.08
2023-04-24T17:55:09.746Z,71.86
2023-04-24T17:57:42.762Z,72.11
2023-04-24T18:00:17.833Z,72.55
2023-04-24T18:02:53.800Z,73.07
2023-04-24T18:05:26.828Z,73.28
2023-04-24T18:08:00.172Z,74.16
2023-04-24T18:10:35.352Z,74.20
2023-04-24T18:13:08.164Z,74.40
2023-04-24T18:15:43.682Z,75.39
2023-04-24T18:18:18.113Z,75.73
2023-04-24T18:20:50.971Z,76.07
2023-04-24T18:23:23.790Z,76.52
2023-04-24T18:25:56.457Z,76.92
2023-04-24T18:28:31.604Z,77.21
2023-04-24T18:31:07.465Z,77.21
2023-04-24T18:33:40.361Z,77.81
2023-04-24T18:36:13.117Z,78.16
2023-04-24T18:38:48.241Z,79.20
2023-04-24T18:41:21.175Z,79.69
2023-04-24T18:43:57.944Z,80.07
2023-04-24T18:46:37.825Z,79.85
2023-04-24T18:49:10.809Z,79.52
2023-04-24T18:51:53.258Z,80.47
2023-04-24T18:54:27.597Z,80.15
2023-04-24T18:57:01.709Z,80.47
2023-04-24T18:59:34.558Z,80.71
2023-04-24T19:02:09.231Z,81.33
2023-04-24T19:04:42.256Z,81.13
2023-04-24T19:07:15.000Z,80.49
2023-04-24T19:09:48.007Z,81.03
2023-04-24T19:12:22.808Z,81.05
2023-04-24T19:14:57.951Z,80.89
2023-04-24T19:17:32.578Z,80.48
2023-04-24T19:20:06.692Z,80.81
2023-04-24T19:22:39.518Z,81.72
2023-04-24T19:25:12.379Z,81.37
2023-04-24T19:27:45.137Z,81.75
2023-04-24T19:30:17.968Z,81.68
2023-04-24T19:32:52.188Z,81.51
2023-04-24T19:35:25.203Z,81.20
2023-04-24T19:37:58.155Z,81.54
2023-04-24T19:40:31.137Z,81.46
2023-04-24T19:43:03.983Z,82.09
2023-04-24T19:45:37.768Z,82.86
2023-04-24T19:48:12.217Z,82.80
2023-04-24T19:50:45.098Z,82.74
2023-04-24T19:53:18.094Z,83.92
2023-04-24T19:55:51.629Z,84.75
2023-04-24T19:58:24.526Z,85.74
2023-04-24T20:00:57.676Z,86.59
2023-04-24T20:03:33.896Z,86.89
2023-04-24T20:06:07.443Z,86.81
2023-04-24T20:08:40.438Z,87.14
2023-04-24T20:11:13.318Z,87.17
2023-04-24T20:13:46.188Z,87.55
2023-04-24T20:16:19.463Z,87.02
2023-04-24T20:18:53.694Z,87.12
2023-04-24T20:21:26.620Z,87.60
2023-04-24T20:23:59.515Z,87.53
2023-04-24T20:26:32.305Z,89.09
2023-04-24T20:29:06.788Z,88.63
2023-04-24T20:31:39.779Z,88.59
2023-04-24T20:34:14.203Z,88.39
2023-04-24T20:36:49.720Z,89.09
2023-04-24T20:39:23.125Z,88.07
2023-04-24T20:41:56.045Z,88.93
2023-04-24T20:44:29.368Z,89.15
2023-04-24T20:47:02.423Z,89.32
2023-04-24T20:49:36.665Z,89.03
2023-04-24T20:52:09.493Z,89.20
2023-04-24T20:54:42.830Z,88.57
2023-04-24T20:57:15.946Z,89.37
2023-04-24T20:59:48.973Z,88.83
2023-04-24T21:02:22.091Z,88.59
2023-04-24T21:04:56.361Z,88.64
2023-04-24T21:07:29.668Z,89.51
2023-04-24T21:10:02.832Z,89.87
2023-04-24T21:12:35.604Z,89.75
2023-04-24T21:15:09.401Z,91.38
2023-04-24T21:17:42.612Z,92.60
2023-04-24T21:20:17.091Z,94.09
2023-04-24T21:22:49.873Z,95.54
2023-04-24T21:25:22.686Z,96.81
2023-04-24T21:27:55.837Z,97.69
2023-04-24T21:30:30.309Z,97.62
2023-04-24T21:33:03.506Z,98.03
2023-04-24T21:35:38.295Z,98.30
2023-04-24T21:38:11.259Z,98.25
2023-04-24T21:40:44.147Z,97.83
2023-04-24T21:43:17.098Z,98.61
2023-04-24T21:45:50.296Z,98.71
2023-04-24T21:48:23.288Z,98.95
2023-04-24T21:50:57.437Z,99.07
2023-04-24T21:53:30.582Z,98.87
2023-04-24T21:56:03.603Z,99.47
2023-04-24T21:58:37.060Z,100.00
2023-04-24T22:01:10.270Z,100.00
2023-04-24T22:08:12.183Z,97.76
2023-04-24T22:10:45.040Z,97.20
2023-04-24T22:13:17.929Z,97.45
2023-04-24T22:15:51.766Z,97.18
2023-04-24T22:18:30.607Z,96.05
2023-04-24T22:21:09.665Z,95.54
2023-04-24T22:23:44.380Z,95.24
2023-04-24T22:26:17.322Z,95.46
2023-04-24T22:28:50.146Z,94.36
2023-04-24T22:31:23.471Z,95.00
2023-04-24T22:33:56.866Z,94.81
2023-04-24T22:36:29.686Z,94.56
2023-04-24T22:39:05.042Z,95.58
2023-04-24T22:41:37.850Z,95.49
2023-04-24T22:44:11.349Z,94.88
2023-04-24T22:46:45.279Z,94.09
2023-04-24T22:49:18.092Z,94.83
2023-04-24T22:51:51.787Z,94.49
2023-04-24T22:54:26.078Z,94.14
2023-04-24T22:56:58.992Z,94.30
2023-04-24T22:59:31.803Z,94.93
2023-04-24T23:02:04.631Z,94.97
2023-04-24T23:04:37.749Z,95.18
2023-04-24T23:07:10.544Z,94.67
2023-04-24T23:09:44.664Z,94.68
2023-04-24T23:12:17.469Z,94.97
2023-04-24T23:14:50.596Z,94.58
2023-04-24T23:17:23.822Z,93.31
2023-04-24T23:19:57.146Z,94.38
2023-04-24T23:22:33.977Z,94.43
2023-04-24T23:25:09.891Z,95.01
2023-04-24T23:27:42.772Z,95.69
2023-04-24T23:30:15.627Z,95.00
2023-04-24T23:32:48.484Z,96.01
2023-04-24T23:35:21.389Z,94.87
2023-04-24T23:37:54.213Z,95.73
2023-04-24T23:40:28.484Z,95.32
2023-04-24T23:43:07.479Z,95.72
2023-04-24T23:45:41.651Z,96.21
2023-04-24T23:48:14.511Z,96.22
2023-04-24T23:50:47.276Z,95.99
2023-04-24T23:53:20.287Z,95.50
2023-04-24T23:55:54.604Z,95.88
2023-04-24T23:58:27.408Z,95.66
